sensor_id;sensor_type;location;lat;lon;timestamp;temperature;humidity
78438;SHT31;67736;51.978;5.656;2023-02-28T00:00:31;4.9;57.2
78438;SHT31;67736;51.978;5.656;2023-02-28T00:03:01;4.9;57.4
78438;SHT31;67736;51.978;5.656;2023-02-28T00:05:33;4.9;57.5
78438;SHT31;67736;51.978;5.656;2023-02-28T00:08:03;4.9;57.5
78438;SHT31;67736;51.978;5.656;2023-02-28T00:10:34;4.8;57.6
78438;SHT31;67736;51.978;5.656;2023-02-28T00:13:06;4.8;57.7
78438;SHT31;67736;51.978;5.656;2023-02-28T00:15:36;4.8;57.8
78438;SHT31;67736;51.978;5.656;2023-02-28T00:18:06;4.8;57.9
78438;SHT31;67736;51.978;5.656;2023-02-28T00:20:35;4.8;57.9
78438;SHT31;67736;51.978;5.656;2023-02-28T00:23:05;4.8;58.0
78438;SHT31;67736;51.978;5.656;2023-02-28T00:25:35;4.8;58.1
78438;SHT31;67736;51.978;5.656;2023-02-28T00:28:04;4.8;58.2
78438;SHT31;67736;51.978;5.656;2023-02-28T00:30:34;4.8;58.2
78438;SHT31;67736;51.978;5.656;2023-02-28T00:33:03;4.8;58.1
78438;SHT31;67736;51.978;5.656;2023-02-28T00:35:33;4.8;58.1
78438;SHT31;67736;51.978;5.656;2023-02-28T00:38:03;4.9;58.1
78438;SHT31;67736;51.978;5.656;2023-02-28T00:40:35;4.9;58.1
78438;SHT31;67736;51.978;5.656;2023-02-28T00:43:04;4.9;57.9
78438;SHT31;67736;51.978;5.656;2023-02-28T00:45:34;4.9;57.9
78438;SHT31;67736;51.978;5.656;2023-02-28T00:48:04;4.9;57.9
78438;SHT31;67736;51.978;5.656;2023-02-28T00:50:33;5.0;58.0
78438;SHT31;67736;51.978;5.656;2023-02-28T00:53:03;5.0;57.8
78438;SHT31;67736;51.978;5.656;2023-02-28T00:55:32;5.1;57.6
78438;SHT31;67736;51.978;5.656;2023-02-28T00:58:02;5.1;57.5
78438;SHT31;67736;51.978;5.656;2023-02-28T01:00:33;5.1;57.3
78438;SHT31;67736;51.978;5.656;2023-02-28T01:03:03;5.1;57.3
78438;SHT31;67736;51.978;5.656;2023-02-28T01:05:33;5.2;57.2
78438;SHT31;67736;51.978;5.656;2023-02-28T01:08:02;5.2;57.2
78438;SHT31;67736;51.978;5.656;2023-02-28T01:10:32;5.2;57.0
78438;SHT31;67736;51.978;5.656;2023-02-28T01:13:06;5.2;56.9
78438;SHT31;67736;51.978;5.656;2023-02-28T01:15:36;5.2;56.8
78438;SHT31;67736;51.978;5.656;2023-02-28T01:18:05;5.3;56.5
78438;SHT31;67736;51.978;5.656;2023-02-28T01:20:36;5.3;56.8
78438;SHT31;67736;51.978;5.656;2023-02-28T01:23:06;5.3;57.0
78438;SHT31;67736;51.978;5.656;2023-02-28T01:25:36;5.3;57.2
78438;SHT31;67736;51.978;5.656;2023-02-28T01:28:06;5.2;57.4
78438;SHT31;67736;51.978;5.656;2023-02-28T01:30:38;5.2;57.4
78438;SHT31;67736;51.978;5.656;2023-02-28T01:33:07;5.2;57.5
78438;SHT31;67736;51.978;5.656;2023-02-28T01:35:37;5.2;57.7
78438;SHT31;67736;51.978;5.656;2023-02-28T01:38:07;5.2;58.0
78438;SHT31;67736;51.978;5.656;2023-02-28T01:40:36;5.2;58.0
78438;SHT31;67736;51.978;5.656;2023-02-28T01:43:16;5.2;57.9
78438;SHT31;67736;51.978;5.656;2023-02-28T01:45:48;5.2;57.8
78438;SHT31;67736;51.978;5.656;2023-02-28T01:48:19;5.3;57.7
78438;SHT31;67736;51.978;5.656;2023-02-28T01:50:50;5.3;57.5
78438;SHT31;67736;51.978;5.656;2023-02-28T01:53:26;5.3;57.5
78438;SHT31;67736;51.978;5.656;2023-02-28T01:56:00;5.4;57.3
78438;SHT31;67736;51.978;5.656;2023-02-28T01:58:32;5.4;57.2
78438;SHT31;67736;51.978;5.656;2023-02-28T02:01:01;5.4;56.8
78438;SHT31;67736;51.978;5.656;2023-02-28T02:03:31;5.5;57.1
78438;SHT31;67736;51.978;5.656;2023-02-28T02:06:02;5.5;56.7
78438;SHT31;67736;51.978;5.656;2023-02-28T02:08:31;5.5;56.5
78438;SHT31;67736;51.978;5.656;2023-02-28T02:11:02;5.5;56.5
78438;SHT31;67736;51.978;5.656;2023-02-28T02:15:06;5.6;56.3
78438;SHT31;67736;51.978;5.656;2023-02-28T02:17:42;5.6;56.2
78438;SHT31;67736;51.978;5.656;2023-02-28T02:20:39;5.6;56.1
78438;SHT31;67736;51.978;5.656;2023-02-28T02:25:27;5.7;56.0
78438;SHT31;67736;51.978;5.656;2023-02-28T02:28:25;5.7;55.5
78438;SHT31;67736;51.978;5.656;2023-02-28T02:31:48;5.8;55.1
78438;SHT31;67736;51.978;5.656;2023-02-28T02:34:39;5.8;54.7
78438;SHT31;67736;51.978;5.656;2023-02-28T02:37:15;5.8;54.7
78438;SHT31;67736;51.978;5.656;2023-02-28T02:39:52;5.8;54.8
78438;SHT31;67736;51.978;5.656;2023-02-28T02:42:29;5.8;54.9
78438;SHT31;67736;51.978;5.656;2023-02-28T02:45:06;5.8;54.8
78438;SHT31;67736;51.978;5.656;2023-02-28T02:47:38;5.8;54.5
78438;SHT31;67736;51.978;5.656;2023-02-28T02:50:14;5.8;54.5
78438;SHT31;67736;51.978;5.656;2023-02-28T02:52:51;5.8;54.5
78438;SHT31;67736;51.978;5.656;2023-02-28T02:55:23;5.8;54.9
78438;SHT31;67736;51.978;5.656;2023-02-28T02:57:57;5.8;55.1
78438;SHT31;67736;51.978;5.656;2023-02-28T03:00:32;5.8;54.9
78438;SHT31;67736;51.978;5.656;2023-02-28T03:03:04;5.9;55.2
78438;SHT31;67736;51.978;5.656;2023-02-28T03:05:44;5.9;55.3
78438;SHT31;67736;51.978;5.656;2023-02-28T03:08:17;6.0;54.9
78438;SHT31;67736;51.978;5.656;2023-02-28T03:10:50;6.0;54.6
78438;SHT31;67736;51.978;5.656;2023-02-28T03:13:39;6.0;54.5
78438;SHT31;67736;51.978;5.656;2023-02-28T03:17:47;6.0;54.6
78438;SHT31;67736;51.978;5.656;2023-02-28T03:20:35;6.0;54.7
78438;SHT31;67736;51.978;5.656;2023-02-28T03:23:16;6.0;54.6
78438;SHT31;67736;51.978;5.656;2023-02-28T03:25:54;6.0;54.4
78438;SHT31;67736;51.978;5.656;2023-02-28T03:28:31;6.0;54.4
78438;SHT31;67736;51.978;5.656;2023-02-28T03:31:10;6.0;53.8
78438;SHT31;67736;51.978;5.656;2023-02-28T03:33:47;5.9;54.3
78438;SHT31;67736;51.978;5.656;2023-02-28T03:36:25;5.9;54.3
78438;SHT31;67736;51.978;5.656;2023-02-28T03:38:59;5.9;53.8
78438;SHT31;67736;51.978;5.656;2023-02-28T03:41:36;5.9;53.8
78438;SHT31;67736;51.978;5.656;2023-02-28T03:44:14;5.9;54.4
78438;SHT31;67736;51.978;5.656;2023-02-28T03:46:50;5.9;54.2
78438;SHT31;67736;51.978;5.656;2023-02-28T03:49:24;5.9;53.9
78438;SHT31;67736;51.978;5.656;2023-02-28T03:52:00;5.9;52.6
78438;SHT31;67736;51.978;5.656;2023-02-28T03:54:35;5.9;52.0
78438;SHT31;67736;51.978;5.656;2023-02-28T03:57:15;5.9;52.9
78438;SHT31;67736;51.978;5.656;2023-02-28T03:59:52;6.0;52.2
78438;SHT31;67736;51.978;5.656;2023-02-28T04:02:25;6.0;52.3
78438;SHT31;67736;51.978;5.656;2023-02-28T04:04:54;6.0;52.6
78438;SHT31;67736;51.978;5.656;2023-02-28T04:07:24;6.0;51.7
78438;SHT31;67736;51.978;5.656;2023-02-28T04:09:56;6.0;52.5
78438;SHT31;67736;51.978;5.656;2023-02-28T04:12:26;6.0;50.9
78438;SHT31;67736;51.978;5.656;2023-02-28T04:14:56;6.0;50.5
78438;SHT31;67736;51.978;5.656;2023-02-28T04:17:25;6.0;49.4
78438;SHT31;67736;51.978;5.656;2023-02-28T04:19:54;6.0;49.6
78438;SHT31;67736;51.978;5.656;2023-02-28T04:22:25;6.0;49.8
78438;SHT31;67736;51.978;5.656;2023-02-28T04:24:55;6.0;50.4
78438;SHT31;67736;51.978;5.656;2023-02-28T04:27:26;5.9;50.6
78438;SHT31;67736;51.978;5.656;2023-02-28T04:29:56;5.9;51.0
78438;SHT31;67736;51.978;5.656;2023-02-28T04:32:25;5.9;50.9
78438;SHT31;67736;51.978;5.656;2023-02-28T04:34:57;5.8;51.1
78438;SHT31;67736;51.978;5.656;2023-02-28T04:37:26;5.8;51.6
78438;SHT31;67736;51.978;5.656;2023-02-28T04:39:56;5.8;52.0
78438;SHT31;67736;51.978;5.656;2023-02-28T04:42:26;5.8;51.6
78438;SHT31;67736;51.978;5.656;2023-02-28T04:45:01;5.8;51.5
78438;SHT31;67736;51.978;5.656;2023-02-28T04:47:31;5.7;50.9
78438;SHT31;67736;51.978;5.656;2023-02-28T04:50:01;5.7;51.1
78438;SHT31;67736;51.978;5.656;2023-02-28T04:52:31;5.7;51.2
78438;SHT31;67736;51.978;5.656;2023-02-28T04:55:01;5.6;51.7
78438;SHT31;67736;51.978;5.656;2023-02-28T04:57:31;5.6;52.4
78438;SHT31;67736;51.978;5.656;2023-02-28T05:00:00;5.6;52.9
78438;SHT31;67736;51.978;5.656;2023-02-28T05:02:34;5.6;53.1
78438;SHT31;67736;51.978;5.656;2023-02-28T05:05:03;5.6;53.3
78438;SHT31;67736;51.978;5.656;2023-02-28T05:07:33;5.6;53.3
78438;SHT31;67736;51.978;5.656;2023-02-28T05:10:03;5.6;53.5
78438;SHT31;67736;51.978;5.656;2023-02-28T05:12:32;5.6;53.5
78438;SHT31;67736;51.978;5.656;2023-02-28T05:15:02;5.6;53.3
78438;SHT31;67736;51.978;5.656;2023-02-28T05:17:32;5.6;53.4
78438;SHT31;67736;51.978;5.656;2023-02-28T05:20:01;5.6;53.5
78438;SHT31;67736;51.978;5.656;2023-02-28T05:22:33;5.6;53.3
78438;SHT31;67736;51.978;5.656;2023-02-28T05:25:03;5.6;53.5
78438;SHT31;67736;51.978;5.656;2023-02-28T05:27:33;5.6;53.8
78438;SHT31;67736;51.978;5.656;2023-02-28T05:30:03;5.6;53.7
78438;SHT31;67736;51.978;5.656;2023-02-28T05:32:33;5.6;54.3
78438;SHT31;67736;51.978;5.656;2023-02-28T05:35:03;5.5;54.1
78438;SHT31;67736;51.978;5.656;2023-02-28T05:37:33;5.5;53.7
78438;SHT31;67736;51.978;5.656;2023-02-28T05:40:04;5.5;54.0
78438;SHT31;67736;51.978;5.656;2023-02-28T05:42:37;5.5;54.0
78438;SHT31;67736;51.978;5.656;2023-02-28T05:45:09;5.5;54.5
78438;SHT31;67736;51.978;5.656;2023-02-28T05:47:38;5.5;54.2
78438;SHT31;67736;51.978;5.656;2023-02-28T05:50:09;5.6;54.2
78438;SHT31;67736;51.978;5.656;2023-02-28T05:52:41;5.6;54.5
78438;SHT31;67736;51.978;5.656;2023-02-28T05:55:12;5.6;54.1
78438;SHT31;67736;51.978;5.656;2023-02-28T05:57:42;5.7;54.0
78438;SHT31;67736;51.978;5.656;2023-02-28T06:00:12;5.7;54.2
78438;SHT31;67736;51.978;5.656;2023-02-28T06:02:43;5.7;54.0
78438;SHT31;67736;51.978;5.656;2023-02-28T06:05:16;5.8;53.9
78438;SHT31;67736;51.978;5.656;2023-02-28T06:07:46;5.8;54.3
78438;SHT31;67736;51.978;5.656;2023-02-28T06:10:16;5.8;54.0
78438;SHT31;67736;51.978;5.656;2023-02-28T06:12:46;5.9;53.9
78438;SHT31;67736;51.978;5.656;2023-02-28T06:15:17;5.9;53.2
78438;SHT31;67736;51.978;5.656;2023-02-28T06:17:48;5.9;53.3
78438;SHT31;67736;51.978;5.656;2023-02-28T06:20:17;5.9;53.4
78438;SHT31;67736;51.978;5.656;2023-02-28T06:22:47;5.9;53.8
78438;SHT31;67736;51.978;5.656;2023-02-28T06:25:18;5.9;53.7
78438;SHT31;67736;51.978;5.656;2023-02-28T06:27:49;5.9;53.3
78438;SHT31;67736;51.978;5.656;2023-02-28T06:30:19;6.0;53.5
78438;SHT31;67736;51.978;5.656;2023-02-28T06:32:52;6.0;53.3
78438;SHT31;67736;51.978;5.656;2023-02-28T06:35:22;6.0;53.2
78438;SHT31;67736;51.978;5.656;2023-02-28T06:37:51;6.0;52.7
78438;SHT31;67736;51.978;5.656;2023-02-28T06:40:23;6.0;52.5
78438;SHT31;67736;51.978;5.656;2023-02-28T06:42:53;6.0;52.6
78438;SHT31;67736;51.978;5.656;2023-02-28T06:45:22;6.0;52.5
78438;SHT31;67736;51.978;5.656;2023-02-28T06:47:53;6.0;52.8
78438;SHT31;67736;51.978;5.656;2023-02-28T06:50:23;6.0;53.1
78438;SHT31;67736;51.978;5.656;2023-02-28T06:52:52;6.0;52.8
78438;SHT31;67736;51.978;5.656;2023-02-28T06:55:23;6.0;52.9
78438;SHT31;67736;51.978;5.656;2023-02-28T06:57:55;6.0;52.7
78438;SHT31;67736;51.978;5.656;2023-02-28T07:00:26;6.0;53.4
78438;SHT31;67736;51.978;5.656;2023-02-28T07:02:56;6.0;53.2
78438;SHT31;67736;51.978;5.656;2023-02-28T07:05:26;6.1;52.6
78438;SHT31;67736;51.978;5.656;2023-02-28T07:07:55;6.1;52.5
78438;SHT31;67736;51.978;5.656;2023-02-28T07:10:25;6.1;51.9
78438;SHT31;67736;51.978;5.656;2023-02-28T07:12:54;6.1;51.9
78438;SHT31;67736;51.978;5.656;2023-02-28T07:15:24;6.1;52.2
78438;SHT31;67736;51.978;5.656;2023-02-28T07:17:54;6.1;51.7
78438;SHT31;67736;51.978;5.656;2023-02-28T07:20:24;6.1;51.5
78438;SHT31;67736;51.978;5.656;2023-02-28T07:22:54;6.1;50.9
78438;SHT31;67736;51.978;5.656;2023-02-28T07:25:26;6.1;50.4
78438;SHT31;67736;51.978;5.656;2023-02-28T07:27:56;6.1;50.4
78438;SHT31;67736;51.978;5.656;2023-02-28T07:30:26;6.1;50.8
78438;SHT31;67736;51.978;5.656;2023-02-28T07:32:56;6.1;50.8
78438;SHT31;67736;51.978;5.656;2023-02-28T07:35:26;6.0;50.2
78438;SHT31;67736;51.978;5.656;2023-02-28T07:37:57;6.0;50.6
78438;SHT31;67736;51.978;5.656;2023-02-28T07:40:30;6.1;50.2
78438;SHT31;67736;51.978;5.656;2023-02-28T07:43:01;6.1;50.1
78438;SHT31;67736;51.978;5.656;2023-02-28T07:45:31;6.0;49.5
78438;SHT31;67736;51.978;5.656;2023-02-28T07:48:02;6.0;49.7
78438;SHT31;67736;51.978;5.656;2023-02-28T07:50:33;6.0;48.9
78438;SHT31;67736;51.978;5.656;2023-02-28T07:53:03;6.1;49.2
78438;SHT31;67736;51.978;5.656;2023-02-28T07:55:33;6.1;49.1
78438;SHT31;67736;51.978;5.656;2023-02-28T07:58:02;6.1;48.0
78438;SHT31;67736;51.978;5.656;2023-02-28T08:00:32;6.1;47.8
78438;SHT31;67736;51.978;5.656;2023-02-28T08:03:03;6.1;47.7
78438;SHT31;67736;51.978;5.656;2023-02-28T08:05:32;6.1;48.0
78438;SHT31;67736;51.978;5.656;2023-02-28T08:08:02;6.1;48.0
78438;SHT31;67736;51.978;5.656;2023-02-28T08:10:32;6.2;48.1
78438;SHT31;67736;51.978;5.656;2023-02-28T08:13:01;6.2;45.9
78438;SHT31;67736;51.978;5.656;2023-02-28T08:15:33;6.4;44.0
78438;SHT31;67736;51.978;5.656;2023-02-28T08:18:05;6.5;38.8
78438;SHT31;67736;51.978;5.656;2023-02-28T08:20:35;6.7;37.7
78438;SHT31;67736;51.978;5.656;2023-02-28T08:23:04;6.7;36.7
78438;SHT31;67736;51.978;5.656;2023-02-28T08:25:34;6.8;37.5
78438;SHT31;67736;51.978;5.656;2023-02-28T08:28:04;7.0;35.7
78438;SHT31;67736;51.978;5.656;2023-02-28T08:30:34;7.1;35.7
78438;SHT31;67736;51.978;5.656;2023-02-28T08:33:03;7.3;35.7
78438;SHT31;67736;51.978;5.656;2023-02-28T08:35:35;7.4;34.8
78438;SHT31;67736;51.978;5.656;2023-02-28T08:38:04;7.5;33.8
78438;SHT31;67736;51.978;5.656;2023-02-28T08:40:34;7.5;33.8
78438;SHT31;67736;51.978;5.656;2023-02-28T08:43:04;7.6;33.7
78438;SHT31;67736;51.978;5.656;2023-02-28T08:45:33;7.6;34.6
78438;SHT31;67736;51.978;5.656;2023-02-28T08:48:03;7.6;34.4
78438;SHT31;67736;51.978;5.656;2023-02-28T08:50:33;7.7;33.7
78438;SHT31;67736;51.978;5.656;2023-02-28T08:53:03;7.8;33.3
78438;SHT31;67736;51.978;5.656;2023-02-28T08:55:32;7.8;33.2
78438;SHT31;67736;51.978;5.656;2023-02-28T08:58:02;7.9;33.5
78438;SHT31;67736;51.978;5.656;2023-02-28T09:00:32;7.9;34.1
78438;SHT31;67736;51.978;5.656;2023-02-28T09:03:01;8.0;34.3
78438;SHT31;67736;51.978;5.656;2023-02-28T09:05:31;8.1;34.0
78438;SHT31;67736;51.978;5.656;2023-02-28T09:08:01;8.1;33.5
78438;SHT31;67736;51.978;5.656;2023-02-28T09:10:30;8.2;31.3
78438;SHT31;67736;51.978;5.656;2023-02-28T09:13:00;8.2;30.5
78438;SHT31;67736;51.978;5.656;2023-02-28T09:15:29;8.2;31.1
78438;SHT31;67736;51.978;5.656;2023-02-28T09:17:59;8.3;31.4
78438;SHT31;67736;51.978;5.656;2023-02-28T09:20:29;8.3;31.5
78438;SHT31;67736;51.978;5.656;2023-02-28T09:22:58;8.4;31.3
78438;SHT31;67736;51.978;5.656;2023-02-28T09:25:28;8.4;30.2
78438;SHT31;67736;51.978;5.656;2023-02-28T09:27:57;8.5;29.6
78438;SHT31;67736;51.978;5.656;2023-02-28T09:30:27;8.5;28.6
78438;SHT31;67736;51.978;5.656;2023-02-28T09:32:59;8.6;28.4
78438;SHT31;67736;51.978;5.656;2023-02-28T09:35:29;8.6;28.5
78438;SHT31;67736;51.978;5.656;2023-02-28T09:38:00;8.6;28.8
78438;SHT31;67736;51.978;5.656;2023-02-28T09:40:31;8.6;29.4
78438;SHT31;67736;51.978;5.656;2023-02-28T09:43:00;8.6;29.4
78438;SHT31;67736;51.978;5.656;2023-02-28T09:45:34;8.7;29.7
78438;SHT31;67736;51.978;5.656;2023-02-28T09:48:13;8.8;29.2
78438;SHT31;67736;51.978;5.656;2023-02-28T09:50:48;8.9;29.5
78438;SHT31;67736;51.978;5.656;2023-02-28T09:53:22;9.0;29.4
78438;SHT31;67736;51.978;5.656;2023-02-28T09:56:05;9.1;29.0
78438;SHT31;67736;51.978;5.656;2023-02-28T09:58:47;9.2;29.3
78438;SHT31;67736;51.978;5.656;2023-02-28T10:01:25;9.3;28.3
78438;SHT31;67736;51.978;5.656;2023-02-28T10:04:00;9.4;27.7
78438;SHT31;67736;51.978;5.656;2023-02-28T10:06:38;9.5;28.1
78438;SHT31;67736;51.978;5.656;2023-02-28T10:09:13;9.5;27.8
78438;SHT31;67736;51.978;5.656;2023-02-28T10:11:48;9.6;27.6
78438;SHT31;67736;51.978;5.656;2023-02-28T10:14:22;9.6;27.7
78438;SHT31;67736;51.978;5.656;2023-02-28T10:16:56;9.7;27.8
78438;SHT31;67736;51.978;5.656;2023-02-28T10:19:33;9.7;27.5
78438;SHT31;67736;51.978;5.656;2023-02-28T10:22:11;9.8;27.7
78438;SHT31;67736;51.978;5.656;2023-02-28T10:24:46;9.8;27.1
78438;SHT31;67736;51.978;5.656;2023-02-28T10:27:19;9.8;27.6
78438;SHT31;67736;51.978;5.656;2023-02-28T10:29:51;9.8;27.3
78438;SHT31;67736;51.978;5.656;2023-02-28T10:32:25;9.8;27.3
78438;SHT31;67736;51.978;5.656;2023-02-28T10:35:00;9.7;27.8
78438;SHT31;67736;51.978;5.656;2023-02-28T10:37:33;9.7;27.7
78438;SHT31;67736;51.978;5.656;2023-02-28T10:40:07;9.6;27.8
78438;SHT31;67736;51.978;5.656;2023-02-28T10:42:43;9.5;27.8
78438;SHT31;67736;51.978;5.656;2023-02-28T10:45:17;9.4;28.2
78438;SHT31;67736;51.978;5.656;2023-02-28T10:47:53;9.3;28.7
78438;SHT31;67736;51.978;5.656;2023-02-28T10:50:30;9.3;29.1
78438;SHT31;67736;51.978;5.656;2023-02-28T10:53:33;9.2;29.1
78438;SHT31;67736;51.978;5.656;2023-02-28T10:56:06;9.2;29.3
78438;SHT31;67736;51.978;5.656;2023-02-28T10:58:47;9.1;29.8
78438;SHT31;67736;51.978;5.656;2023-02-28T11:01:20;9.1;29.5
78438;SHT31;67736;51.978;5.656;2023-02-28T11:03:52;9.1;29.6
78438;SHT31;67736;51.978;5.656;2023-02-28T11:06:25;9.1;29.7
78438;SHT31;67736;51.978;5.656;2023-02-28T11:08:59;9.1;29.4
78438;SHT31;67736;51.978;5.656;2023-02-28T11:11:40;9.1;29.9
78438;SHT31;67736;51.978;5.656;2023-02-28T11:14:06;9.1;29.5
78438;SHT31;67736;51.978;5.656;2023-02-28T11:16:40;9.1;29.8
78438;SHT31;67736;51.978;5.656;2023-02-28T11:19:19;9.0;30.3
78438;SHT31;67736;51.978;5.656;2023-02-28T11:21:53;9.0;30.1
78438;SHT31;67736;51.978;5.656;2023-02-28T11:24:28;8.9;30.2
78438;SHT31;67736;51.978;5.656;2023-02-28T11:26:59;8.9;29.9
78438;SHT31;67736;51.978;5.656;2023-02-28T11:29:30;8.8;29.8
78438;SHT31;67736;51.978;5.656;2023-02-28T11:32:18;8.8;30.0
78438;SHT31;67736;51.978;5.656;2023-02-28T11:35:02;8.7;30.3
78438;SHT31;67736;51.978;5.656;2023-02-28T11:37:33;8.6;30.9
78438;SHT31;67736;51.978;5.656;2023-02-28T11:40:08;8.6;31.0
78438;SHT31;67736;51.978;5.656;2023-02-28T11:42:52;8.6;31.0
78438;SHT31;67736;51.978;5.656;2023-02-28T11:46:20;8.6;31.3
78438;SHT31;67736;51.978;5.656;2023-02-28T11:49:05;8.6;31.0
78438;SHT31;67736;51.978;5.656;2023-02-28T11:51:45;8.5;31.3
78438;SHT31;67736;51.978;5.656;2023-02-28T11:54:39;8.5;31.1
78438;SHT31;67736;51.978;5.656;2023-02-28T11:57:31;8.5;31.0
78438;SHT31;67736;51.978;5.656;2023-02-28T12:00:05;8.5;31.1
78438;SHT31;67736;51.978;5.656;2023-02-28T12:02:49;8.5;31.5
78438;SHT31;67736;51.978;5.656;2023-02-28T12:05:28;8.5;30.8
78438;SHT31;67736;51.978;5.656;2023-02-28T12:08:07;8.5;31.1
78438;SHT31;67736;51.978;5.656;2023-02-28T12:10:49;8.5;30.6
78438;SHT31;67736;51.978;5.656;2023-02-28T12:13:25;8.5;30.2
78438;SHT31;67736;51.978;5.656;2023-02-28T12:16:16;8.5;30.2
78438;SHT31;67736;51.978;5.656;2023-02-28T12:19:07;8.5;29.6
78438;SHT31;67736;51.978;5.656;2023-02-28T12:21:52;8.5;29.8
78438;SHT31;67736;51.978;5.656;2023-02-28T12:24:34;8.4;30.2
78438;SHT31;67736;51.978;5.656;2023-02-28T12:27:11;8.4;29.9
78438;SHT31;67736;51.978;5.656;2023-02-28T12:29:48;8.4;29.4
78438;SHT31;67736;51.978;5.656;2023-02-28T12:32:23;8.3;29.4
78438;SHT31;67736;51.978;5.656;2023-02-28T12:34:59;8.3;29.4
78438;SHT31;67736;51.978;5.656;2023-02-28T12:37:36;8.2;29.8
78438;SHT31;67736;51.978;5.656;2023-02-28T12:40:12;8.2;30.1
78438;SHT31;67736;51.978;5.656;2023-02-28T12:42:47;8.2;30.6
78438;SHT31;67736;51.978;5.656;2023-02-28T12:45:22;8.2;30.4
78438;SHT31;67736;51.978;5.656;2023-02-28T12:47:59;8.2;30.4
78438;SHT31;67736;51.978;5.656;2023-02-28T12:50:32;8.2;30.2
78438;SHT31;67736;51.978;5.656;2023-02-28T12:53:08;8.2;30.1
78438;SHT31;67736;51.978;5.656;2023-02-28T12:55:45;8.2;30.4
78438;SHT31;67736;51.978;5.656;2023-02-28T12:58:23;8.2;31.1
78438;SHT31;67736;51.978;5.656;2023-02-28T13:06:09;8.3;30.6
78438;SHT31;67736;51.978;5.656;2023-02-28T13:09:04;8.3;30.2
78438;SHT31;67736;51.978;5.656;2023-02-28T13:11:39;8.3;29.6
78438;SHT31;67736;51.978;5.656;2023-02-28T13:14:20;8.3;29.3
78438;SHT31;67736;51.978;5.656;2023-02-28T13:17:25;8.3;29.4
78438;SHT31;67736;51.978;5.656;2023-02-28T13:19:59;8.3;29.7
78438;SHT31;67736;51.978;5.656;2023-02-28T13:22:40;8.3;29.5
78438;SHT31;67736;51.978;5.656;2023-02-28T13:29:31;8.3;29.8
78438;SHT31;67736;51.978;5.656;2023-02-28T13:32:29;8.3;30.0
78438;SHT31;67736;51.978;5.656;2023-02-28T13:37:20;8.3;30.6
78438;SHT31;67736;51.978;5.656;2023-02-28T13:39:53;8.3;30.0
78438;SHT31;67736;51.978;5.656;2023-02-28T13:42:33;8.4;29.7
78438;SHT31;67736;51.978;5.656;2023-02-28T13:45:27;8.4;29.7
78438;SHT31;67736;51.978;5.656;2023-02-28T13:48:00;8.5;29.6
78438;SHT31;67736;51.978;5.656;2023-02-28T13:50:33;8.5;29.6
78438;SHT31;67736;51.978;5.656;2023-02-28T13:54:42;8.5;29.7
78438;SHT31;67736;51.978;5.656;2023-02-28T13:57:26;8.6;29.7
78438;SHT31;67736;51.978;5.656;2023-02-28T14:00:13;8.7;29.0
78438;SHT31;67736;51.978;5.656;2023-02-28T14:03:08;8.7;29.5
78438;SHT31;67736;51.978;5.656;2023-02-28T14:05:43;8.8;29.0
78438;SHT31;67736;51.978;5.656;2023-02-28T14:08:18;8.8;28.9
78438;SHT31;67736;51.978;5.656;2023-02-28T14:11:04;8.8;29.1
78438;SHT31;67736;51.978;5.656;2023-02-28T14:13:42;8.8;29.1
78438;SHT31;67736;51.978;5.656;2023-02-28T14:16:17;8.8;29.3
78438;SHT31;67736;51.978;5.656;2023-02-28T14:18:55;8.8;29.4
78438;SHT31;67736;51.978;5.656;2023-02-28T14:21:28;8.8;29.5
78438;SHT31;67736;51.978;5.656;2023-02-28T14:26:16;8.8;29.1
78438;SHT31;67736;51.978;5.656;2023-02-28T14:29:03;8.8;29.0
78438;SHT31;67736;51.978;5.656;2023-02-28T14:31:42;8.8;29.8
78438;SHT31;67736;51.978;5.656;2023-02-28T14:34:37;8.8;29.8
78438;SHT31;67736;51.978;5.656;2023-02-28T14:37:14;8.8;29.3
78438;SHT31;67736;51.978;5.656;2023-02-28T14:39:48;8.8;29.6
78438;SHT31;67736;51.978;5.656;2023-02-28T14:42:31;8.8;29.3
78438;SHT31;67736;51.978;5.656;2023-02-28T14:45:02;8.8;29.3
78438;SHT31;67736;51.978;5.656;2023-02-28T14:47:34;8.8;29.4
78438;SHT31;67736;51.978;5.656;2023-02-28T14:50:05;8.8;29.5
78438;SHT31;67736;51.978;5.656;2023-02-28T14:52:37;8.8;29.3
78438;SHT31;67736;51.978;5.656;2023-02-28T14:55:15;8.8;29.6
78438;SHT31;67736;51.978;5.656;2023-02-28T14:57:53;8.8;29.1
78438;SHT31;67736;51.978;5.656;2023-02-28T15:00:25;8.8;29.8
78438;SHT31;67736;51.978;5.656;2023-02-28T15:02:58;8.9;30.0
78438;SHT31;67736;51.978;5.656;2023-02-28T15:05:30;8.9;29.1
78438;SHT31;67736;51.978;5.656;2023-02-28T15:08:11;8.9;29.5
78438;SHT31;67736;51.978;5.656;2023-02-28T15:10:44;8.9;29.3
78438;SHT31;67736;51.978;5.656;2023-02-28T15:13:15;8.9;29.0
78438;SHT31;67736;51.978;5.656;2023-02-28T15:15:48;8.9;29.2
78438;SHT31;67736;51.978;5.656;2023-02-28T15:18:29;8.9;29.3
78438;SHT31;67736;51.978;5.656;2023-02-28T15:21:03;8.9;29.4
78438;SHT31;67736;51.978;5.656;2023-02-28T15:23:35;8.9;29.3
78438;SHT31;67736;51.978;5.656;2023-02-28T15:26:06;8.9;29.3
78438;SHT31;67736;51.978;5.656;2023-02-28T15:28:38;8.9;29.1
78438;SHT31;67736;51.978;5.656;2023-02-28T15:31:20;8.9;29.2
78438;SHT31;67736;51.978;5.656;2023-02-28T15:33:55;8.9;29.6
78438;SHT31;67736;51.978;5.656;2023-02-28T15:36:28;8.9;29.2
78438;SHT31;67736;51.978;5.656;2023-02-28T15:39:00;8.9;29.4
78438;SHT31;67736;51.978;5.656;2023-02-28T15:41:37;8.9;29.7
78438;SHT31;67736;51.978;5.656;2023-02-28T15:44:24;8.9;29.5
78438;SHT31;67736;51.978;5.656;2023-02-28T15:47:01;8.9;30.0
78438;SHT31;67736;51.978;5.656;2023-02-28T15:49:44;8.9;29.6
78438;SHT31;67736;51.978;5.656;2023-02-28T15:52:17;8.9;30.2
78438;SHT31;67736;51.978;5.656;2023-02-28T15:54:48;8.9;29.8
78438;SHT31;67736;51.978;5.656;2023-02-28T15:57:22;8.9;29.4
78438;SHT31;67736;51.978;5.656;2023-02-28T15:59:56;9.0;29.8
78438;SHT31;67736;51.978;5.656;2023-02-28T16:02:33;9.0;29.9
78438;SHT31;67736;51.978;5.656;2023-02-28T16:05:23;8.9;30.0
78438;SHT31;67736;51.978;5.656;2023-02-28T16:08:01;8.9;30.4
78438;SHT31;67736;51.978;5.656;2023-02-28T16:10:30;8.9;30.1
78438;SHT31;67736;51.978;5.656;2023-02-28T16:13:02;8.9;29.7
78438;SHT31;67736;51.978;5.656;2023-02-28T16:15:37;8.9;29.9
78438;SHT31;67736;51.978;5.656;2023-02-28T16:18:10;8.9;29.9
78438;SHT31;67736;51.978;5.656;2023-02-28T16:20:42;8.9;30.2
78438;SHT31;67736;51.978;5.656;2023-02-28T16:23:12;8.9;29.8
78438;SHT31;67736;51.978;5.656;2023-02-28T16:25:44;8.9;30.0
78438;SHT31;67736;51.978;5.656;2023-02-28T16:28:20;8.9;30.1
78438;SHT31;67736;51.978;5.656;2023-02-28T16:30:51;8.9;30.3
78438;SHT31;67736;51.978;5.656;2023-02-28T16:33:21;8.9;30.7
78438;SHT31;67736;51.978;5.656;2023-02-28T16:35:51;8.9;30.3
78438;SHT31;67736;51.978;5.656;2023-02-28T16:38:21;8.8;30.7
78438;SHT31;67736;51.978;5.656;2023-02-28T16:40:57;8.8;30.6
78438;SHT31;67736;51.978;5.656;2023-02-28T16:43:28;8.9;30.5
78438;SHT31;67736;51.978;5.656;2023-02-28T16:45:58;8.8;30.9
78438;SHT31;67736;51.978;5.656;2023-02-28T16:48:28;8.8;30.8
78438;SHT31;67736;51.978;5.656;2023-02-28T16:50:59;8.8;30.5
78438;SHT31;67736;51.978;5.656;2023-02-28T16:53:31;8.8;31.1
78438;SHT31;67736;51.978;5.656;2023-02-28T16:56:02;8.8;31.2
78438;SHT31;67736;51.978;5.656;2023-02-28T16:58:34;8.8;31.2
78438;SHT31;67736;51.978;5.656;2023-02-28T17:01:07;8.8;31.0
78438;SHT31;67736;51.978;5.656;2023-02-28T17:03:39;8.7;31.0
78438;SHT31;67736;51.978;5.656;2023-02-28T17:06:17;8.7;31.1
78438;SHT31;67736;51.978;5.656;2023-02-28T17:08:47;8.7;31.3
78438;SHT31;67736;51.978;5.656;2023-02-28T17:11:18;8.6;31.2
78438;SHT31;67736;51.978;5.656;2023-02-28T17:13:48;8.6;31.3
78438;SHT31;67736;51.978;5.656;2023-02-28T17:16:23;8.6;31.4
78438;SHT31;67736;51.978;5.656;2023-02-28T17:18:57;8.5;31.4
78438;SHT31;67736;51.978;5.656;2023-02-28T17:21:28;8.5;31.4